Time;durP1;ratioP1;P1;durP2;ratioP2;P2;SDS_P1;SDS_P2;PMS_P1;PMS_P2;Temp;Humidity;BMP_temperature;BMP_pressure;BME280_temperature;BME280_humidity;BME280_pressure;Samples;Min_cycle;Max_cycle;Signal;HPM_P1;HPM_P2
2022/12/01 00:00:11;;;;;;;49.72;20.77;;;;;;;2.15;100.00;99097.50;2607992;28;20108;-84
2022/12/01 00:01:36;;;;;;;48.08;19.55;;;;;;;1.82;100.00;99101.25;2608029;28;20438;-85
2022/12/01 00:02:52;;;;;;;48.38;19.77;;;;;;;1.76;100.00;99104.59;2607572;28;20053;-85
2022/12/01 00:04:08;;;;;;;51.30;20.90;;;;;;;1.94;100.00;99098.00;2608149;28;20423;-83
2022/12/01 00:05:23;;;;;;;49.33;20.95;;;;;;;1.97;100.00;99088.59;2608306;28;20418;-84
2022/12/01 00:06:39;;;;;;;55.17;21.75;;;;;;;2.11;100.00;99101.78;2608181;28;20419;-83
2022/12/01 00:07:57;;;;;;;45.30;19.75;;;;;;;2.05;100.00;99104.22;2608190;28;20626;-84
2022/12/01 00:10:47;;;;;;;44.85;19.02;;;;;;;2.24;100.00;99096.81;2607726;28;20110;-84
2022/12/01 00:12:03;;;;;;;44.40;19.73;;;;;;;2.27;100.00;99099.44;2608038;28;20076;-84
2022/12/01 00:13:19;;;;;;;42.40;18.17;;;;;;;2.30;100.00;99090.84;2607898;28;20045;-84
2022/12/01 00:14:34;;;;;;;44.72;19.35;;;;;;;2.30;100.00;99093.44;2607470;28;20045;-83
2022/12/01 00:15:50;;;;;;;49.47;19.65;;;;;;;2.29;100.00;99083.94;2607719;28;20056;-85
2022/12/01 00:17:05;;;;;;;45.53;19.27;;;;;;;2.36;100.00;99091.81;2607740;28;20435;-85
2022/12/01 00:18:21;;;;;;;49.97;20.85;;;;;;;2.38;100.00;99084.09;2607627;28;20126;-84
2022/12/01 00:19:37;;;;;;;48.38;20.40;;;;;;;2.39;100.00;99078.09;2607230;28;20462;-89
2022/12/01 00:20:54;;;;;;;44.10;18.42;;;;;;;2.24;100.00;99081.31;2607726;28;20052;-83
2022/12/01 00:22:10;;;;;;;51.83;21.15;;;;;;;2.35;100.00;99084.91;2607613;28;20076;-84
2022/12/01 00:23:26;;;;;;;49.97;22.58;;;;;;;2.43;100.00;99076.41;2607337;28;20060;-84
2022/12/01 00:24:41;;;;;;;51.90;22.40;;;;;;;2.48;100.00;99082.50;2607863;28;20575;-86
2022/12/01 00:26:04;;;;;;;52.65;23.30;;;;;;;2.50;100.00;99076.53;2607928;28;20053;-85
2022/12/01 00:27:19;;;;;;;54.45;23.63;;;;;;;2.56;100.00;99080.94;2607401;28;20076;-84
2022/12/01 00:28:35;;;;;;;58.80;26.10;;;;;;;2.54;100.00;99077.47;2607524;28;20045;-85
2022/12/01 00:29:51;;;;;;;63.22;25.38;;;;;;;2.58;100.00;99075.75;2607489;28;20643;-84
2022/12/01 00:31:10;;;;;;;54.65;24.60;;;;;;;2.47;100.00;99078.19;2606963;28;20053;-83
2022/12/01 00:32:28;;;;;;;55.45;22.92;;;;;;;2.35;100.00;99078.88;2607167;28;20113;-84
2022/12/01 00:33:44;;;;;;;54.92;23.15;;;;;;;2.28;100.00;99083.09;2607246;28;20135;-84
2022/12/01 00:35:00;;;;;;;50.95;22.05;;;;;;;2.30;100.00;99083.09;2607244;28;20049;-85
2022/12/01 00:36:16;;;;;;;51.22;21.63;;;;;;;2.36;100.00;99085.78;2607548;28;20072;-84
2022/12/01 00:37:33;;;;;;;52.10;22.30;;;;;;;2.46;100.00;99079.03;2607070;28;20049;-84
2022/12/01 00:38:53;;;;;;;51.30;22.65;;;;;;;2.62;100.00;99077.56;2607107;28;20057;-83
2022/12/01 00:40:09;;;;;;;48.92;20.40;;;;;;;2.42;100.00;99085.88;2607271;28;20056;-84
2022/12/01 00:41:25;;;;;;;46.30;20.33;;;;;;;2.59;100.00;99080.97;2607495;28;20074;-85
2022/12/01 00:42:40;;;;;;;45.55;19.95;;;;;;;2.66;100.00;99082.81;2606610;28;20135;-84
2022/12/01 00:43:56;;;;;;;48.58;19.63;;;;;;;2.51;100.00;99090.31;2607140;28;20053;-84
2022/12/01 00:45:12;;;;;;;49.53;20.55;;;;;;;2.36;100.00;99093.53;2606886;28;20215;-86
2022/12/01 00:46:28;;;;;;;45.05;21.10;;;;;;;2.45;100.00;99095.41;2607129;28;20106;-84
2022/12/01 00:47:43;;;;;;;46.28;20.50;;;;;;;2.53;100.00;99093.81;2607095;28;20064;-85
2022/12/01 00:48:59;;;;;;;50.55;21.13;;;;;;;2.60;100.00;99095.63;2607239;28;20529;-84
2022/12/01 00:50:14;;;;;;;50.60;21.40;;;;;;;2.64;100.00;99092.22;2607185;28;20660;-84
2022/12/01 00:51:30;;;;;;;43.65;19.85;;;;;;;2.57;100.00;99087.84;2607372;28;20498;-84
2022/12/01 00:52:46;;;;;;;48.53;20.75;;;;;;;2.37;100.00;99098.72;2607359;28;20230;-86
2022/12/01 00:54:01;;;;;;;46.25;20.83;;;;;;;2.58;100.00;99096.44;2607195;28;20068;-84
2022/12/01 00:55:17;;;;;;;49.63;21.48;;;;;;;2.66;100.00;99098.31;2607283;28;20286;-84
2022/12/01 00:56:32;;;;;;;45.17;21.58;;;;;;;2.47;100.00;99094.59;2606903;28;20791;-84
2022/12/01 00:57:48;;;;;;;47.20;21.45;;;;;;;2.30;100.00;99098.59;2606940;28;20056;-88
2022/12/01 00:59:04;;;;;;;47.83;21.25;;;;;;;2.55;100.00;99097.28;2607065;28;20475;-84
2022/12/01 01:00:19;;;;;;;47.72;21.48;;;;;;;2.52;100.00;99098.09;2607319;28;20053;-84
2022/12/01 01:01:35;;;;;;;51.30;21.38;;;;;;;2.46;100.00;99092.84;2607556;28;20094;-84
2022/12/01 01:02:51;;;;;;;41.47;19.90;;;;;;;2.33;100.00;99089.19;2607431;28;20044;-84
2022/12/01 01:04:06;;;;;;;50.20;20.63;;;;;;;2.28;100.00;99085.66;2607732;28;20179;-84
2022/12/01 01:05:22;;;;;;;50.00;21.35;;;;;;;2.13;100.00;99098.34;2607085;28;20045;-85
2022/12/01 01:06:38;;;;;;;50.35;22.25;;;;;;;2.03;100.00;99094.75;2607328;28;20060;-84
2022/12/01 01:07:53;;;;;;;52.72;22.02;;;;;;;1.89;100.00;99094.50;2607271;28;20048;-84
2022/12/01 01:09:10;;;;;;;50.08;22.67;;;;;;;2.09;100.00;99094.84;2607268;28;20511;-86
2022/12/01 01:10:25;;;;;;;57.30;22.15;;;;;;;1.97;100.00;99086.03;2607144;28;20106;-83
2022/12/01 01:11:41;;;;;;;57.58;23.23;;;;;;;2.14;100.00;99084.59;2607586;28;20053;-84
2022/12/01 01:12:56;;;;;;;51.30;23.05;;;;;;;2.15;100.00;99082.00;2607277;28;20049;-84
2022/12/01 01:14:14;;;;;;;52.15;22.20;;;;;;;2.35;100.00;99079.75;2607416;28;20056;-86
2022/12/01 01:15:29;;;;;;;52.78;21.80;;;;;;;2.38;100.00;99078.94;2607025;28;20551;-84
2022/12/01 01:16:45;;;;;;;49.53;21.88;;;;;;;2.44;100.00;99075.56;2607370;28;20068;-84
2022/12/01 01:18:01;;;;;;;54.00;21.77;;;;;;;2.49;100.00;99076.50;2607289;28;20542;-84
2022/12/01 01:19:16;;;;;;;43.05;20.65;;;;;;;2.50;100.00;99073.06;2607191;28;20072;-84
2022/12/01 01:20:32;;;;;;;50.88;21.45;;;;;;;2.44;100.00;99073.00;2606978;28;20421;-85
2022/12/01 01:21:48;;;;;;;46.78;20.38;;;;;;;2.46;100.00;99073.88;2607288;28;20127;-85
2022/12/01 01:23:03;;;;;;;48.97;21.13;;;;;;;2.39;100.00;99071.22;2607361;28;20056;-84
2022/12/01 01:24:19;;;;;;;53.15;22.35;;;;;;;2.53;100.00;99073.13;2607072;28;20134;-84
2022/12/01 01:25:35;;;;;;;48.40;22.52;;;;;;;2.50;100.00;99073.06;2607278;28;20053;-84
2022/12/01 01:26:50;;;;;;;50.75;21.73;;;;;;;2.36;100.00;99071.13;2607119;28;20052;-84
2022/12/01 01:28:06;;;;;;;56.13;24.05;;;;;;;2.43;100.00;99072.09;2607029;28;20091;-84
2022/12/01 01:29:22;;;;;;;53.55;21.55;;;;;;;2.37;100.00;99064.28;2606982;28;20057;-84
2022/12/01 01:30:40;;;;;;;51.70;22.55;;;;;;;2.37;100.00;99072.88;2607108;28;20530;-84
2022/12/01 01:31:56;;;;;;;48.67;21.02;;;;;;;2.41;100.00;99071.22;2607034;28;20045;-85
2022/12/01 01:33:11;;;;;;;53.30;21.33;;;;;;;2.47;100.00;99073.91;2607164;28;20132;-88
2022/12/01 01:34:27;;;;;;;45.28;19.83;;;;;;;2.53;100.00;99066.22;2607245;28;20119;-85
2022/12/01 01:35:43;;;;;;;48.53;21.38;;;;;;;2.55;100.00;99076.59;2607161;28;20045;-84
2022/12/01 01:36:58;;;;;;;44.05;20.10;;;;;;;2.53;100.00;99075.72;2607157;28;20107;-84
2022/12/01 01:38:14;;;;;;;44.95;19.17;;;;;;;2.54;100.00;99077.47;2607418;28;20048;-84
2022/12/01 01:39:29;;;;;;;43.75;19.75;;;;;;;2.53;100.00;99073.13;2607043;28;20075;-85
2022/12/01 01:40:46;;;;;;;41.88;18.80;;;;;;;2.57;100.00;99074.91;2607223;28;20099;-85
2022/12/01 01:42:01;;;;;;;44.83;19.55;;;;;;;2.61;100.00;99070.66;2607084;28;20512;-87
2022/12/01 01:43:38;;;;;;;48.00;20.05;;;;;;;2.61;100.00;99079.25;2607071;28;20088;-87
2022/12/01 01:44:56;;;;;;;43.55;18.38;;;;;;;2.60;100.00;99068.94;2607128;28;20080;-85
2022/12/01 01:46:15;;;;;;;46.85;19.50;;;;;;;2.62;100.00;99069.81;2606830;28;20053;-85
2022/12/01 01:47:38;;;;;;;46.70;20.52;;;;;;;2.70;100.00;99073.34;2606692;28;20045;-84
2022/12/01 01:49:16;;;;;;;49.95;21.17;;;;;;;2.47;100.00;99073.03;2607056;28;20053;-84
2022/12/01 01:50:32;;;;;;;46.30;20.15;;;;;;;2.52;100.00;99066.22;2606828;28;20163;-84
2022/12/01 01:51:52;;;;;;;46.35;20.85;;;;;;;2.65;100.00;99062.97;2606525;28;20338;-84
2022/12/01 01:53:11;;;;;;;48.95;20.52;;;;;;;2.63;100.00;99069.81;2606474;28;20049;-84
2022/12/01 01:54:34;;;;;;;50.10;19.58;;;;;;;2.60;100.00;99066.34;2606555;28;20415;-85
2022/12/01 01:55:50;;;;;;;50.55;21.20;;;;;;;2.62;100.00;99068.06;2606672;28;20076;-84
2022/12/01 01:57:08;;;;;;;57.50;22.50;;;;;;;2.61;100.00;99068.94;2605866;28;20215;-85
2022/12/01 01:58:25;;;;;;;56.88;21.67;;;;;;;2.59;100.00;99075.78;2606503;28;20060;-84
2022/12/01 01:59:44;;;;;;;53.00;18.85;;;;;;;2.72;100.00;99075.97;2606580;28;20049;-84
2022/12/01 02:01:00;;;;;;;53.08;20.70;;;;;;;2.52;100.00;99072.25;2606768;28;20061;-84
2022/12/01 02:02:16;;;;;;;44.42;19.25;;;;;;;2.51;100.00;99072.22;2606705;28;20052;-86
2022/12/01 02:03:33;;;;;;;47.80;20.38;;;;;;;2.47;100.00;99073.03;2606380;28;20049;-85
2022/12/01 02:04:57;;;;;;;40.63;20.10;;;;;;;2.39;100.00;99076.38;2606471;28;20397;-84
2022/12/01 02:06:13;;;;;;;47.38;20.40;;;;;;;2.37;100.00;99072.88;2606152;28;20100;-84
2022/12/01 02:07:28;;;;;;;44.25;19.85;;;;;;;2.44;100.00;99076.41;2606837;28;20053;-85
2022/12/01 02:08:44;;;;;;;47.63;20.17;;;;;;;2.46;100.00;99071.28;2606682;28;20052;-84
2022/12/01 02:10:00;;;;;;;45.28;21.08;;;;;;;2.40;100.00;99072.06;2606294;28;20072;-84
2022/12/01 02:11:47;;;;;;;47.28;21.88;;;;;;;2.34;100.00;99070.25;2606540;28;20106;-84
2022/12/01 02:13:52;;;;;;;44.30;19.08;;;;;;;2.29;100.00;99074.50;2606444;28;20053;-84
2022/12/01 02:15:14;;;;;;;42.45;19.55;;;;;;;2.31;100.00;99065.03;2588761;28;20053;-84
2022/12/01 02:16:48;;;;;;;42.42;19.48;;;;;;;2.23;100.00;99069.22;2606551;28;20226;-84
2022/12/01 02:18:19;;;;;;;49.83;21.17;;;;;;;2.07;100.00;99071.56;2606502;28;20478;-83
2022/12/01 02:19:49;;;;;;;44.53;19.35;;;;;;;2.16;100.00;99069.97;2606448;28;20048;-85
2022/12/01 02:21:17;;;;;;;51.05;21.45;;;;;;;2.00;100.00;99064.56;2606430;28;20069;-85
2022/12/01 02:22:52;;;;;;;42.00;19.23;;;;;;;2.09;100.00;99067.28;2606386;28;20056;-84
2022/12/01 02:24:45;;;;;;;45.20;20.15;;;;;;;1.98;100.00;99074.00;2607123;28;20510;-84
2022/12/01 02:26:29;;;;;;;45.67;19.27;;;;;;;2.09;100.00;99069.84;2606107;28;20136;-85
2022/12/01 02:28:09;;;;;;;47.38;20.42;;;;;;;1.90;100.00;99071.28;2606757;28;20053;-83
2022/12/01 02:30:00;;;;;;;45.85;19.38;;;;;;;2.08;100.00;99070.69;2606288;28;20047;-85
2022/12/01 02:31:21;;;;;;;42.33;18.80;;;;;;;2.18;100.00;99071.75;2606704;28;20094;-85
2022/12/01 02:33:06;;;;;;;47.28;20.17;;;;;;;1.93;100.00;99070.44;2606257;28;20080;-84
2022/12/01 02:34:31;;;;;;;45.85;18.92;;;;;;;2.07;100.00;99063.81;2606400;28;20049;-87
2022/12/01 02:36:00;;;;;;;47.53;19.00;;;;;;;2.14;100.00;99069.94;2606610;28;20053;-84
2022/12/01 02:37:38;;;;;;;46.65;20.67;;;;;;;2.21;100.00;99065.72;2606414;28;20076;-84
2022/12/01 02:39:05;;;;;;;48.25;19.70;;;;;;;2.04;100.00;99066.34;2606705;28;20048;-85
2022/12/01 02:40:29;;;;;;;41.22;19.00;;;;;;;2.17;100.00;99066.53;2606219;28;20890;-87
2022/12/01 02:44:24;;;;;;;39.75;17.67;;;;;;;2.23;100.00;99070.09;2584261;28;20169;-84
2022/12/01 02:45:51;;;;;;;46.75;19.05;;;;;;;2.17;100.00;99061.38;2591128;28;20143;-84
2022/12/01 02:47:15;;;;;;;41.53;18.92;;;;;;;2.24;100.00;99066.66;2606386;28;20049;-84
2022/12/01 02:48:38;;;;;;;46.47;19.35;;;;;;;2.22;100.00;99067.47;2606061;28;20159;-84
2022/12/01 02:49:56;;;;;;;38.65;17.23;;;;;;;2.19;100.00;99063.16;2605946;28;20048;-87
2022/12/01 02:51:18;;;;;;;52.80;20.60;;;;;;;2.24;100.00;99065.81;2606546;28;20584;-84
2022/12/01 02:52:33;;;;;;;41.95;18.83;;;;;;;2.17;100.00;99069.13;2606180;28;20072;-85
2022/12/01 02:53:50;;;;;;;47.90;20.33;;;;;;;2.11;100.00;99067.31;2606477;28;20077;-84
2022/12/01 02:55:05;;;;;;;44.30;20.50;;;;;;;2.15;100.00;99061.34;2606023;28;20053;-84
2022/12/01 02:56:22;;;;;;;45.13;19.65;;;;;;;2.02;100.00;99060.28;2606162;28;20214;-85
2022/12/01 02:57:38;;;;;;;48.28;20.00;;;;;;;2.12;100.00;99056.13;2606235;28;20048;-83
2022/12/01 02:58:54;;;;;;;44.97;20.15;;;;;;;2.14;100.00;99058.75;2606116;28;20465;-84
2022/12/01 03:00:12;;;;;;;48.72;21.00;;;;;;;2.15;100.00;99053.59;2606209;28;20563;-85
2022/12/01 03:01:33;;;;;;;46.63;20.42;;;;;;;2.15;100.00;99052.75;2606289;28;20057;-85
2022/12/01 03:03:29;;;;;;;45.33;19.00;;;;;;;2.09;100.00;99051.78;2606385;28;20625;-85
2022/12/01 03:04:59;;;;;;;41.97;18.00;;;;;;;2.08;100.00;99055.19;2606212;28;20057;-85
2022/12/01 03:06:43;;;;;;;40.63;18.02;;;;;;;2.05;100.00;99057.75;2606358;28;20077;-84
2022/12/01 03:08:12;;;;;;;44.10;18.38;;;;;;;1.85;100.00;99056.56;2600566;28;20052;-84
2022/12/01 03:09:31;;;;;;;50.78;20.30;;;;;;;1.82;100.00;99067.69;2608097;28;20053;-84
2022/12/01 03:10:55;;;;;;;47.47;20.45;;;;;;;1.66;100.00;99067.41;2608471;28;20480;-84
2022/12/01 03:12:33;;;;;;;47.80;20.10;;;;;;;1.66;100.00;99061.38;2608452;28;20056;-84
2022/12/01 03:13:58;;;;;;;46.15;18.67;;;;;;;1.50;100.00;99066.25;2608888;28;20064;-84
2022/12/01 03:15:27;;;;;;;53.80;20.23;;;;;;;1.24;100.00;99058.88;2608466;28;20651;-84
2022/12/01 03:16:50;;;;;;;49.80;19.20;;;;;;;1.13;100.00;99065.56;2608416;28;20044;-84
2022/12/01 03:18:13;;;;;;;55.97;21.20;;;;;;;0.98;100.00;99067.00;2608179;28;20049;-84
2022/12/01 03:19:38;;;;;;;57.85;23.42;;;;;;;1.12;100.00;99064.69;2608243;28;20060;-84
2022/12/01 03:21:19;;;;;;;55.92;21.35;;;;;;;0.95;100.00;99059.16;2608303;28;20690;-84
2022/12/01 03:22:40;;;;;;;61.58;20.10;;;;;;;0.72;100.00;99050.09;2608359;28;20071;-84
2022/12/01 03:24:04;;;;;;;69.55;23.55;;;;;;;1.05;100.00;99055.09;2608532;28;20462;-83
2022/12/01 03:25:23;;;;;;;67.07;24.63;;;;;;;1.01;100.00;99057.56;2608016;28;20110;-84
2022/12/01 03:26:47;;;;;;;72.28;23.70;;;;;;;1.02;100.00;99052.44;2608512;28;20053;-86
2022/12/01 03:28:04;;;;;;;67.10;24.95;;;;;;;1.26;100.00;99057.22;2608303;28;20053;-84
2022/12/01 03:29:42;;;;;;;66.43;25.38;;;;;;;1.47;100.00;99050.72;2608042;28;20131;-83
2022/12/01 03:31:06;;;;;;;63.90;22.42;;;;;;;1.60;100.00;99053.53;2607941;28;20057;-85
2022/12/01 03:32:34;;;;;;;71.60;22.63;;;;;;;1.52;100.00;99049.09;2608023;28;20104;-84
2022/12/01 03:34:23;;;;;;;69.50;24.67;;;;;;;1.46;100.00;99061.00;2608281;28;20045;-84
2022/12/01 03:35:45;;;;;;;73.60;23.50;;;;;;;1.23;100.00;99059.72;2608035;28;20373;-85
2022/12/01 03:37:09;;;;;;;73.63;22.30;;;;;;;1.14;100.00;99062.16;2608214;28;20052;-83
2022/12/01 03:38:28;;;;;;;67.05;22.15;;;;;;;0.99;100.00;99057.53;2608054;28;20052;-84
2022/12/01 03:39:46;;;;;;;84.72;25.85;;;;;;;1.19;100.00;99059.63;2607482;28;20091;-83
2022/12/01 03:41:15;;;;;;;105.32;26.15;;;;;;;1.32;100.00;99056.44;2608017;28;20052;-84
2022/12/01 03:42:36;;;;;;;71.15;23.35;;;;;;;1.24;100.00;99056.31;2608055;28;20057;-84
2022/12/01 03:44:01;;;;;;;74.82;23.77;;;;;;;1.33;100.00;99058.22;2608287;28;20053;-84
2022/12/01 03:45:29;;;;;;;55.08;20.42;;;;;;;1.39;100.00;99063.50;2607938;28;20055;-85
2022/12/01 03:47:00;;;;;;;51.53;21.25;;;;;;;1.43;100.00;99060.94;2608157;28;20048;-85
2022/12/01 03:48:16;;;;;;;55.47;21.38;;;;;;;1.52;100.00;99062.00;2607895;28;20483;-84
2022/12/01 03:49:32;;;;;;;51.65;20.45;;;;;;;1.64;100.00;99057.91;2607609;28;20099;-84
2022/12/01 03:51:23;;;;;;;47.97;20.50;;;;;;;1.48;100.00;99062.78;2608147;28;20064;-85
2022/12/01 03:53:18;;;;;;;53.05;20.48;;;;;;;1.47;100.00;99060.19;2607654;28;20083;-84
2022/12/01 03:54:56;;;;;;;49.40;21.63;;;;;;;1.73;100.00;99063.25;2608074;28;20084;-85
2022/12/01 03:56:16;;;;;;;49.85;20.52;;;;;;;1.68;100.00;99065.72;2607875;28;20056;-84
2022/12/01 03:57:48;;;;;;;49.80;20.27;;;;;;;1.79;100.00;99060.75;2607998;28;20077;-84
2022/12/01 03:59:07;;;;;;;54.38;21.02;;;;;;;1.88;100.00;99054.88;2607957;28;20057;-84
2022/12/01 04:00:23;;;;;;;55.75;22.70;;;;;;;1.88;100.00;99060.03;2607289;28;20101;-84
2022/12/01 04:01:39;;;;;;;55.25;21.23;;;;;;;1.83;100.00;99064.25;2607987;28;20118;-84
2022/12/01 04:02:56;;;;;;;52.33;20.88;;;;;;;1.88;100.00;99061.75;2607742;28;20049;-84
2022/12/01 04:04:13;;;;;;;52.85;21.95;;;;;;;1.86;100.00;99060.88;2607833;28;20849;-85
2022/12/01 04:05:31;;;;;;;51.55;19.98;;;;;;;1.80;100.00;99064.22;2607892;28;20045;-84
2022/12/01 04:06:49;;;;;;;53.30;21.10;;;;;;;1.74;100.00;99062.41;2607853;28;20072;-84
2022/12/01 04:08:05;;;;;;;48.47;20.77;;;;;;;1.74;100.00;99064.09;2607773;28;20106;-85
2022/12/01 04:09:20;;;;;;;48.15;21.35;;;;;;;1.84;100.00;99068.59;2608128;28;20099;-84
2022/12/01 04:10:36;;;;;;;52.20;21.58;;;;;;;1.77;100.00;99054.69;2608199;28;20045;-84
2022/12/01 04:13:26;;;;;;;49.65;20.98;;;;;;;1.79;100.00;99055.59;2607948;28;20060;-84
2022/12/01 04:14:41;;;;;;;49.67;21.58;;;;;;;1.54;100.00;99060.34;2608052;28;20049;-86
2022/12/01 04:15:57;;;;;;;47.42;19.92;;;;;;;1.79;100.00;99054.72;2607683;28;20057;-84
2022/12/01 04:17:12;;;;;;;46.25;20.50;;;;;;;1.76;100.00;99057.28;2607436;28;20045;-83
2022/12/01 04:18:28;;;;;;;48.28;19.90;;;;;;;1.77;100.00;99053.84;2607514;28;20606;-86
2022/12/01 04:19:44;;;;;;;49.13;21.15;;;;;;;1.73;100.00;99063.25;2606876;28;20049;-84
2022/12/01 04:20:59;;;;;;;51.40;21.20;;;;;;;1.75;100.00;99063.28;2607784;28;20049;-84
2022/12/01 04:22:15;;;;;;;46.63;19.83;;;;;;;1.78;100.00;99064.19;2607766;28;20053;-83
2022/12/01 04:25:06;;;;;;;47.35;19.10;;;;;;;1.68;100.00;99072.63;2607944;28;20542;-85
2022/12/01 04:26:22;;;;;;;52.38;21.05;;;;;;;1.66;100.00;99066.53;2607754;28;20135;-84
2022/12/01 04:27:37;;;;;;;43.70;18.95;;;;;;;1.77;100.00;99057.28;2607642;28;20045;-84
2022/12/01 04:28:53;;;;;;;51.72;21.02;;;;;;;1.68;100.00;99062.31;2607737;28;20053;-84
2022/12/01 04:30:09;;;;;;;46.53;20.25;;;;;;;1.67;100.00;99063.13;2607405;28;20049;-83
2022/12/01 04:31:25;;;;;;;50.35;20.63;;;;;;;1.66;100.00;99067.41;2607609;28;20056;-84
2022/12/01 04:32:42;;;;;;;43.47;19.48;;;;;;;1.63;100.00;99067.38;2606963;28;20128;-87
2022/12/01 04:33:58;;;;;;;50.95;21.83;;;;;;;1.49;100.00;99072.25;2606521;28;20148;-84
2022/12/01 04:35:14;;;;;;;46.00;19.65;;;;;;;1.39;100.00;99076.38;2607734;28;20045;-85
2022/12/01 04:36:31;;;;;;;52.70;21.60;;;;;;;1.39;100.00;99071.22;2607097;28;20067;-85
2022/12/01 04:37:47;;;;;;;50.33;21.10;;;;;;;1.51;100.00;99074.88;2607230;28;20071;-83
2022/12/01 04:39:03;;;;;;;56.72;22.25;;;;;;;1.52;100.00;99072.31;2607427;28;20052;-85
2022/12/01 04:40:20;;;;;;;59.80;25.13;;;;;;;1.54;100.00;99067.19;2607350;28;20462;-85
2022/12/01 04:41:36;;;;;;;57.67;23.88;;;;;;;1.57;100.00;99071.56;2607152;28;20581;-84
2022/12/01 04:42:51;;;;;;;58.60;24.27;;;;;;;1.34;100.00;99074.56;2607227;28;20451;-84
2022/12/01 04:44:09;;;;;;;59.25;23.70;;;;;;;1.28;100.00;99070.13;2607583;28;20080;-85
2022/12/01 04:45:24;;;;;;;62.35;24.90;;;;;;;1.31;100.00;99079.66;2607134;28;20454;-84
2022/12/01 04:46:40;;;;;;;62.78;23.23;;;;;;;1.35;100.00;99074.59;2607336;28;20088;-84
2022/12/01 04:47:56;;;;;;;55.58;22.50;;;;;;;1.52;100.00;99080.06;2607487;28;20997;-84
2022/12/01 04:49:11;;;;;;;57.53;23.65;;;;;;;1.59;100.00;99075.88;2607207;28;20151;-84
2022/12/01 04:50:27;;;;;;;54.03;23.00;;;;;;;1.59;100.00;99081.03;2607518;28;20400;-84
2022/12/01 04:51:43;;;;;;;56.08;23.02;;;;;;;1.67;100.00;99078.59;2607490;28;20072;-84
2022/12/01 04:52:58;;;;;;;54.50;23.20;;;;;;;1.51;100.00;99078.31;2606987;28;20064;-85
2022/12/01 04:54:14;;;;;;;60.95;24.40;;;;;;;1.54;100.00;99075.81;2607222;28;20076;-84
2022/12/01 04:55:30;;;;;;;49.60;22.60;;;;;;;1.69;100.00;99082.09;2606570;28;20396;-85
2022/12/01 04:56:45;;;;;;;57.28;22.20;;;;;;;1.73;100.00;99080.41;2607198;28;20045;-83
2022/12/01 04:58:03;;;;;;;49.80;21.88;;;;;;;1.74;100.00;99084.75;2606943;28;20068;-85
2022/12/01 04:59:19;;;;;;;56.10;22.42;;;;;;;1.77;100.00;99085.69;2607087;28;20621;-84
2022/12/01 05:00:36;;;;;;;52.17;22.63;;;;;;;1.78;100.00;99082.25;2606739;28;20103;-83
2022/12/01 05:01:51;;;;;;;48.20;19.73;;;;;;;1.36;100.00;99083.19;2606635;28;20060;-85
2022/12/01 05:03:07;;;;;;;54.42;21.52;;;;;;;1.12;100.00;99081.88;2607031;28;20416;-84
2022/12/01 05:04:23;;;;;;;57.95;22.55;;;;;;;1.32;100.00;99077.09;2607334;28;20476;-84
2022/12/01 05:05:38;;;;;;;62.45;24.27;;;;;;;1.60;100.00;99084.50;2607433;28;20512;-84
2022/12/01 05:06:54;;;;;;;55.20;22.63;;;;;;;1.67;100.00;99082.06;2607008;28;20499;-84
2022/12/01 05:08:10;;;;;;;60.63;22.90;;;;;;;1.82;100.00;99081.47;2607043;28;20579;-83
2022/12/01 05:09:25;;;;;;;57.35;22.83;;;;;;;1.91;100.00;99077.31;2606449;28;20565;-84
2022/12/01 05:10:41;;;;;;;54.50;22.42;;;;;;;1.83;100.00;99075.47;2606511;28;20467;-84
2022/12/01 05:11:56;;;;;;;58.00;23.85;;;;;;;1.95;100.00;99079.09;2607117;28;20049;-84
2022/12/01 05:13:12;;;;;;;55.25;22.80;;;;;;;1.94;100.00;99079.94;2606891;28;20110;-84
2022/12/01 05:14:28;;;;;;;49.13;21.67;;;;;;;1.92;100.00;99079.03;2607144;28;20057;-87
2022/12/01 05:15:43;;;;;;;53.03;22.05;;;;;;;1.99;100.00;99078.31;2606991;28;20053;-83
2022/12/01 05:16:59;;;;;;;52.40;20.70;;;;;;;1.99;100.00;99086.06;2607417;28;20045;-83
2022/12/01 05:18:14;;;;;;;46.53;20.77;;;;;;;2.03;100.00;99080.09;2607122;28;20144;-86
2022/12/01 05:21:06;;;;;;;53.58;20.83;;;;;;;2.05;100.00;99073.25;2607278;28;20526;-81
2022/12/01 05:22:22;;;;;;;45.95;19.27;;;;;;;2.13;100.00;99081.13;2607479;28;20480;-81
2022/12/01 05:23:38;;;;;;;52.78;21.13;;;;;;;1.99;100.00;99080.91;2607091;28;20330;-80
2022/12/01 05:24:53;;;;;;;54.53;22.90;;;;;;;2.05;100.00;99073.25;2606981;28;20144;-80
2022/12/01 05:26:09;;;;;;;52.50;21.45;;;;;;;2.13;100.00;99077.69;2607055;28;20045;-80
2022/12/01 05:27:24;;;;;;;56.30;22.45;;;;;;;1.80;100.00;99083.13;2607269;28;20071;-81
2022/12/01 05:28:40;;;;;;;61.30;24.08;;;;;;;1.74;100.00;99084.75;2607664;28;20179;-80
2022/12/01 05:29:56;;;;;;;65.32;26.15;;;;;;;1.80;100.00;99087.44;2607395;28;20928;-84
2022/12/01 05:31:11;;;;;;;56.83;24.45;;;;;;;1.76;100.00;99090.84;2605649;28;20053;-80
2022/12/01 05:32:27;;;;;;;61.97;24.90;;;;;;;1.85;100.00;99090.13;2604806;28;20605;-81
2022/12/01 05:33:42;;;;;;;51.92;21.65;;;;;;;2.07;100.00;99088.78;2611765;28;20132;-82
2022/12/01 05:34:58;;;;;;;52.88;22.52;;;;;;;2.03;100.00;99090.44;2609240;28;20063;-83
2022/12/01 05:36:14;;;;;;;48.00;20.83;;;;;;;1.94;100.00;99082.50;2607309;28;20048;-83
2022/12/01 05:37:33;;;;;;;48.08;19.80;;;;;;;1.92;100.00;99082.50;2607198;28;20159;-82
2022/12/01 05:38:48;;;;;;;48.78;20.08;;;;;;;1.99;100.00;99083.47;2607375;28;20057;-81
2022/12/01 05:40:05;;;;;;;47.80;21.60;;;;;;;1.98;100.00;99079.16;2607011;28;20045;-81
2022/12/01 05:41:21;;;;;;;47.13;19.20;;;;;;;2.05;100.00;99087.88;2607112;28;20051;-80
2022/12/01 05:42:36;;;;;;;49.17;20.05;;;;;;;2.15;100.00;99081.16;2607030;28;20055;-79
2022/12/01 05:43:52;;;;;;;45.50;20.17;;;;;;;1.87;100.00;99083.28;2607210;28;20380;-82
2022/12/01 05:45:08;;;;;;;48.13;20.10;;;;;;;2.04;100.00;99084.41;2606898;28;20061;-81
2022/12/01 05:46:23;;;;;;;51.05;20.83;;;;;;;2.13;100.00;99081.13;2607160;28;20053;-81
2022/12/01 05:47:39;;;;;;;45.33;20.33;;;;;;;2.03;100.00;99081.84;2607248;28;20051;-81
2022/12/01 05:48:54;;;;;;;47.00;18.35;;;;;;;1.63;100.00;99085.44;2606978;28;20052;-81
2022/12/01 05:50:10;;;;;;;48.80;20.90;;;;;;;1.93;100.00;99083.34;2606865;28;20057;-81
2022/12/01 05:51:26;;;;;;;42.15;19.20;;;;;;;2.07;100.00;99078.44;2606930;28;20087;-86
2022/12/01 05:52:41;;;;;;;50.22;20.27;;;;;;;2.24;100.00;99083.91;2606627;28;20044;-79
2022/12/01 05:54:00;;;;;;;46.17;19.40;;;;;;;2.22;100.00;99083.84;2606265;28;20622;-81
2022/12/01 05:55:16;;;;;;;45.85;19.92;;;;;;;1.89;100.00;99081.56;2606432;28;20083;-81
2022/12/01 05:56:31;;;;;;;47.90;20.50;;;;;;;1.80;100.00;99082.28;2607011;28;20471;-82
2022/12/01 05:57:47;;;;;;;49.35;20.52;;;;;;;1.97;100.00;99083.44;2607078;28;20510;-84
2022/12/01 05:59:02;;;;;;;41.35;19.30;;;;;;;2.07;100.00;99081.88;2606659;28;20084;-81
2022/12/01 06:00:18;;;;;;;46.15;19.40;;;;;;;1.90;100.00;99081.63;2607013;28;20135;-79
2022/12/01 06:01:34;;;;;;;42.95;18.55;;;;;;;1.92;100.00;99085.09;2606760;28;20083;-80
2022/12/01 06:02:50;;;;;;;41.83;19.08;;;;;;;2.12;100.00;99076.78;2606858;28;20049;-83
2022/12/01 06:04:05;;;;;;;46.85;19.95;;;;;;;2.12;100.00;99074.22;2606814;28;20045;-80
2022/12/01 06:05:21;;;;;;;45.17;20.13;;;;;;;2.10;100.00;99081.97;2606433;28;20045;-80
2022/12/01 06:06:36;;;;;;;46.13;20.15;;;;;;;2.13;100.00;99067.34;2606397;28;20549;-79
2022/12/01 06:07:52;;;;;;;48.45;19.92;;;;;;;2.21;100.00;99070.91;2606706;28;20092;-87
2022/12/01 06:09:08;;;;;;;51.15;20.48;;;;;;;1.94;100.00;99075.66;2606605;28;20052;-80
2022/12/01 06:10:23;;;;;;;49.47;19.58;;;;;;;2.05;100.00;99081.00;2606451;28;20076;-80
2022/12/01 06:11:39;;;;;;;44.97;19.00;;;;;;;2.08;100.00;99081.03;2606820;28;20040;-78
2022/12/01 06:12:55;;;;;;;47.55;19.40;;;;;;;2.13;100.00;99081.13;2606733;28;20037;-79
2022/12/01 06:14:10;;;;;;;45.67;19.85;;;;;;;2.11;100.00;99083.69;2606786;28;20403;-79